Time;durP1;ratioP1;P1;durP2;ratioP2;P2;SDS_P1;SDS_P2;PMS_P1;PMS_P2;Temp;Humidity;BMP_temperature;BMP_pressure;BME280_temperature;BME280_humidity;BME280_pressure;Samples;Min_cycle;Max_cycle;Signal;HPM_P1;HPM_P2
2022/03/18 00:02:21;;;;;;;75.85;17.77;;;4.20;99.90;;;;;;5071976;28;20051;-70
2022/03/18 00:04:48;;;;;;;105.28;26.33;;;4.30;99.90;;;;;;5071061;28;20043;-71
2022/03/18 00:07:14;;;;;;;129.90;32.10;;;4.20;99.90;;;;;;5070780;28;20370;-70
2022/03/18 00:09:41;;;;;;;114.10;29.63;;;4.20;99.90;;;;;;5069007;28;20331;-69
2022/03/18 00:12:11;;;;;;;112.18;29.10;;;4.20;99.90;;;;;;5047805;28;20049;-69
2022/03/18 00:14:40;;;;;;;84.40;22.27;;;4.20;99.90;;;;;;5083231;28;20484;-70
2022/03/18 00:17:10;;;;;;;76.45;22.15;;;4.20;99.90;;;;;;5091691;28;20118;-70
2022/03/18 00:19:38;;;;;;;79.13;21.33;;;4.20;99.90;;;;;;5091908;28;20074;-70
2022/03/18 00:22:04;;;;;;;68.78;18.85;;;4.10;99.90;;;;;;5089677;28;20036;-70
2022/03/18 00:24:32;;;;;;;59.00;17.20;;;4.20;99.90;;;;;;5090816;28;20075;-70
2022/03/18 00:26:58;;;;;;;44.72;13.50;;;4.10;99.90;;;;;;5092005;28;20089;-70
2022/03/18 00:29:25;;;;;;;45.90;14.07;;;4.20;99.90;;;;;;5091905;28;20077;-70
2022/03/18 00:31:51;;;;;;;40.22;12.48;;;4.10;99.90;;;;;;5091191;28;20071;-70
2022/03/18 00:34:16;;;;;;;29.25;10.50;;;4.10;99.90;;;;;;5091508;28;20066;-70
2022/03/18 00:36:42;;;;;;;24.77;9.60;;;4.00;99.90;;;;;;5092389;28;20421;-72
2022/03/18 00:39:07;;;;;;;31.10;10.18;;;4.00;99.90;;;;;;5092164;28;20123;-69
2022/03/18 00:41:33;;;;;;;23.63;8.25;;;4.00;99.90;;;;;;5091860;28;20067;-69
2022/03/18 00:43:59;;;;;;;21.00;7.85;;;4.00;99.90;;;;;;5079582;28;20047;-69
2022/03/18 00:46:25;;;;;;;24.33;8.32;;;4.00;99.90;;;;;;5107567;28;20044;-69
2022/03/18 00:54:20;;;;;;;28.02;8.38;;;3.90;99.90;;;;;;5090286;28;20051;-70
2022/03/18 00:56:46;;;;;;;16.73;7.25;;;3.80;99.90;;;;;;5089754;28;20050;-69
2022/03/18 00:59:11;;;;;;;21.80;7.78;;;3.80;99.90;;;;;;5090030;28;20043;-69
2022/03/18 01:01:37;;;;;;;23.92;8.15;;;3.70;99.90;;;;;;5089883;28;20050;-69
2022/03/18 01:04:04;;;;;;;22.25;7.65;;;3.70;99.90;;;;;;5072596;28;20070;-70
2022/03/18 01:06:30;;;;;;;17.88;7.10;;;3.80;99.90;;;;;;5091165;28;20066;-70
2022/03/18 01:08:56;;;;;;;13.48;7.00;;;3.80;99.90;;;;;;5089899;28;20443;-69
2022/03/18 01:11:22;;;;;;;15.85;6.43;;;3.70;99.90;;;;;;5089840;28;20036;-70
2022/03/18 01:13:47;;;;;;;16.75;7.18;;;3.70;99.90;;;;;;5090952;28;20043;-69
2022/03/18 01:16:13;;;;;;;15.32;6.35;;;3.70;99.90;;;;;;5096889;28;20052;-69
2022/03/18 01:18:39;;;;;;;10.98;6.07;;;3.70;99.90;;;;;;5116113;28;20106;-70
2022/03/18 01:21:05;;;;;;;15.07;6.45;;;3.60;99.90;;;;;;5105501;28;20035;-70
2022/03/18 01:23:30;;;;;;;17.20;6.95;;;3.70;99.90;;;;;;5074209;28;20047;-70
2022/03/18 01:25:56;;;;;;;13.95;6.45;;;3.70;99.90;;;;;;5090505;28;20051;-70
2022/03/18 01:28:23;;;;;;;14.95;5.75;;;3.70;99.90;;;;;;5090800;28;20028;-70
2022/03/18 01:30:48;;;;;;;12.20;5.95;;;3.60;99.90;;;;;;5090089;28;20227;-70
2022/03/18 01:33:14;;;;;;;14.43;5.93;;;3.70;99.90;;;;;;5088944;28;20040;-70
2022/03/18 01:35:40;;;;;;;11.55;6.35;;;3.60;99.90;;;;;;5089890;28;20492;-70
2022/03/18 01:38:06;;;;;;;11.90;5.88;;;3.70;99.90;;;;;;5091113;28;20118;-70
2022/03/18 01:40:31;;;;;;;20.23;6.43;;;3.70;99.90;;;;;;5090846;28;20031;-70
2022/03/18 01:42:57;;;;;;;14.82;6.85;;;3.70;99.90;;;;;;5088911;28;20146;-70
2022/03/18 01:45:24;;;;;;;10.88;6.25;;;3.70;99.90;;;;;;5089593;28;20036;-72
2022/03/18 01:47:50;;;;;;;14.40;6.57;;;3.70;99.90;;;;;;5089246;28;20484;-70
2022/03/18 01:50:16;;;;;;;16.13;6.05;;;3.70;99.90;;;;;;5089080;28;20039;-70
2022/03/18 01:52:43;;;;;;;12.23;6.32;;;3.60;99.90;;;;;;5089780;28;20040;-70
2022/03/18 01:55:09;;;;;;;13.18;6.20;;;3.60;99.90;;;;;;5090014;28;20055;-69
2022/03/18 01:57:36;;;;;;;12.70;6.63;;;3.60;99.90;;;;;;5108991;28;20205;-69
2022/03/18 02:00:04;;;;;;;9.52;5.93;;;3.70;99.90;;;;;;5102098;28;20036;-70
2022/03/18 02:02:29;;;;;;;15.95;7.78;;;3.70;99.90;;;;;;5089744;28;20051;-69
2022/03/18 02:04:56;;;;;;;15.93;6.20;;;3.70;99.90;;;;;;5090183;28;20162;-69
2022/03/18 02:07:21;;;;;;;13.20;5.57;;;3.70;99.90;;;;;;5090256;28;20051;-70
2022/03/18 02:09:47;;;;;;;19.05;6.10;;;3.70;99.90;;;;;;5088667;28;20067;-70
2022/03/18 02:12:13;;;;;;;11.55;6.00;;;3.70;99.90;;;;;;5089190;28;20032;-70
2022/03/18 02:14:44;;;;;;;11.98;6.18;;;3.70;99.90;;;;;;5088812;28;20408;-72
2022/03/18 02:17:12;;;;;;;16.83;7.10;;;3.60;99.90;;;;;;5089029;28;20052;-71
2022/03/18 02:19:39;;;;;;;11.15;5.57;;;3.70;99.90;;;;;;5094274;28;20043;-70
2022/03/18 02:22:13;;;;;;;16.27;5.85;;;3.60;99.90;;;;;;5093488;28;20040;-70
2022/03/18 02:24:43;;;;;;;15.90;6.25;;;3.60;99.90;;;;;;5094106;28;20036;-70
2022/03/18 02:27:09;;;;;;;12.43;5.43;;;3.60;99.90;;;;;;5094407;28;20052;-70
2022/03/18 02:29:35;;;;;;;13.07;6.72;;;3.60;99.90;;;;;;5094499;28;20043;-70
2022/03/18 02:32:02;;;;;;;19.08;5.80;;;3.70;99.90;;;;;;5093693;28;20860;-70
2022/03/18 02:34:28;;;;;;;11.18;5.82;;;3.60;99.90;;;;;;5093298;28;20047;-71
2022/03/18 02:36:54;;;;;;;17.95;6.35;;;3.60;99.90;;;;;;5100134;28;20044;-69
2022/03/18 02:39:20;;;;;;;14.88;6.18;;;3.50;99.90;;;;;;5099668;28;20096;-69
2022/03/18 02:41:46;;;;;;;12.13;5.93;;;3.50;99.90;;;;;;5110125;28;20115;-71
2022/03/18 02:44:11;;;;;;;10.75;5.60;;;3.60;99.90;;;;;;5093226;28;20071;-70
2022/03/18 02:46:37;;;;;;;15.77;5.57;;;3.60;99.90;;;;;;5092620;28;20411;-70
2022/03/18 02:49:04;;;;;;;20.50;6.18;;;3.50;99.90;;;;;;5092458;28;20039;-70
2022/03/18 02:51:30;;;;;;;12.80;6.25;;;3.50;99.90;;;;;;5092678;28;20536;-70
2022/03/18 02:53:57;;;;;;;18.58;6.78;;;3.50;99.90;;;;;;5091727;28;20123;-70
2022/03/18 02:56:23;;;;;;;19.15;6.82;;;3.50;99.90;;;;;;5092684;28;20147;-70
2022/03/18 02:58:49;;;;;;;17.48;6.00;;;3.60;99.90;;;;;;5093714;28;20093;-70
2022/03/18 03:01:15;;;;;;;10.18;5.82;;;3.60;99.90;;;;;;5092215;28;20066;-69
2022/03/18 03:03:40;;;;;;;18.33;6.32;;;3.50;99.90;;;;;;5091742;28;20194;-70
2022/03/18 03:08:50;;;;;;;13.38;6.18;;;3.50;99.90;;;;;;5102702;28;20044;-70
2022/03/18 03:11:16;;;;;;;12.88;6.28;;;3.50;99.90;;;;;;5109372;28;20040;-70
2022/03/18 03:13:42;;;;;;;11.05;6.55;;;3.50;99.90;;;;;;5092627;28;20040;-70
2022/03/18 03:16:08;;;;;;;14.13;6.63;;;3.50;99.90;;;;;;5092389;28;20036;-70
2022/03/18 03:18:35;;;;;;;11.23;6.22;;;3.50;99.90;;;;;;5091665;28;20216;-70
2022/03/18 03:21:01;;;;;;;16.23;6.75;;;3.50;99.90;;;;;;5093310;28;20044;-70
2022/03/18 03:23:26;;;;;;;12.38;6.05;;;3.40;99.90;;;;;;5090979;28;20032;-70
2022/03/18 03:25:56;;;;;;;21.08;7.00;;;3.40;99.90;;;;;;5093533;28;20040;-70
2022/03/18 03:28:22;;;;;;;13.13;6.40;;;3.40;99.90;;;;;;5074904;28;20040;-70
2022/03/18 03:30:49;;;;;;;7.75;5.05;;;3.20;99.90;;;;;;5091955;28;20381;-70
2022/03/18 03:33:15;;;;;;;10.43;4.63;;;3.20;99.90;;;;;;5091976;28;20043;-71
2022/03/18 03:35:41;;;;;;;12.27;4.85;;;3.20;99.90;;;;;;5092521;28;20113;-71
2022/03/18 03:38:10;;;;;;;10.02;4.47;;;3.10;99.90;;;;;;5093095;28;20048;-69
2022/03/18 03:40:36;;;;;;;7.00;4.57;;;2.90;99.90;;;;;;5091409;28;20093;-69
2022/03/18 03:43:02;;;;;;;10.52;4.63;;;3.00;99.90;;;;;;5092684;28;20032;-71
2022/03/18 03:45:28;;;;;;;8.63;5.13;;;2.90;99.90;;;;;;5092969;28;20062;-71
2022/03/18 03:47:53;;;;;;;8.70;4.72;;;3.00;99.90;;;;;;5074461;28;20036;-71
2022/03/18 03:50:19;;;;;;;9.15;4.68;;;3.00;99.90;;;;;;5091380;28;20132;-71
2022/03/18 03:52:45;;;;;;;10.68;4.32;;;2.90;99.90;;;;;;5090448;28;20078;-71
2022/03/18 03:55:12;;;;;;;10.70;4.47;;;2.90;99.90;;;;;;5092436;28;20044;-71
2022/03/18 03:57:39;;;;;;;6.68;4.00;;;2.90;99.90;;;;;;5091668;28;20047;-69
2022/03/18 04:00:07;;;;;;;9.43;5.05;;;2.90;99.90;;;;;;5096586;28;20040;-69
2022/03/18 04:02:32;;;;;;;9.52;4.90;;;3.00;99.90;;;;;;5116528;28;20044;-69
2022/03/18 04:04:58;;;;;;;11.10;5.07;;;3.00;99.90;;;;;;5109311;28;20036;-70
2022/03/18 04:07:26;;;;;;;10.90;5.05;;;2.90;99.90;;;;;;5096047;28;20055;-70
2022/03/18 04:09:54;;;;;;;11.00;5.55;;;2.80;99.90;;;;;;5091565;28;20047;-70
2022/03/18 04:12:22;;;;;;;12.35;5.28;;;2.90;99.90;;;;;;5092304;28;20044;-69
2022/03/18 04:14:48;;;;;;;21.80;5.38;;;2.90;99.90;;;;;;5093374;28;20032;-71
2022/03/18 04:17:14;;;;;;;9.68;4.50;;;2.80;99.90;;;;;;5092720;28;20039;-69
2022/03/18 04:19:39;;;;;;;9.18;4.60;;;2.90;99.90;;;;;;5094530;28;20516;-69
2022/03/18 04:22:06;;;;;;;9.55;4.85;;;2.90;99.90;;;;;;5092099;28;20062;-69
2022/03/18 04:24:32;;;;;;;9.13;4.95;;;2.80;99.90;;;;;;5101570;28;20038;-70
2022/03/18 04:26:58;;;;;;;12.68;5.50;;;2.90;99.90;;;;;;5090798;28;20118;-69
2022/03/18 04:29:24;;;;;;;12.90;5.60;;;3.00;99.90;;;;;;5092409;28;20072;-69
2022/03/18 04:31:51;;;;;;;17.10;5.70;;;2.90;99.90;;;;;;5089660;28;20047;-70
2022/03/18 04:34:17;;;;;;;13.65;6.25;;;3.00;99.90;;;;;;5090073;28;20043;-70
2022/03/18 04:36:43;;;;;;;14.95;6.95;;;3.00;99.90;;;;;;5091742;28;20106;-69
2022/03/18 04:39:08;;;;;;;12.30;6.22;;;3.00;99.90;;;;;;5091656;28;20040;-69
2022/03/18 04:41:34;;;;;;;11.70;5.45;;;3.00;99.90;;;;;;5089640;28;20048;-69
2022/03/18 04:44:03;;;;;;;14.93;7.07;;;2.80;99.90;;;;;;5089986;28;20044;-70
2022/03/18 04:46:31;;;;;;;12.23;5.13;;;2.80;99.90;;;;;;5091662;28;20143;-70
2022/03/18 04:49:00;;;;;;;9.40;5.60;;;2.80;99.90;;;;;;5091454;28;20070;-70
2022/03/18 04:51:26;;;;;;;11.27;4.70;;;2.80;99.90;;;;;;5091429;28;20131;-70
2022/03/18 04:53:52;;;;;;;11.20;5.20;;;2.80;99.90;;;;;;5089368;28;20427;-70
2022/03/18 04:59:03;;;;;;;12.25;5.47;;;2.70;99.90;;;;;;5089951;28;20109;-70
2022/03/18 05:01:29;;;;;;;9.77;5.95;;;2.80;99.90;;;;;;5091263;28;20361;-70
2022/03/18 05:03:55;;;;;;;12.23;6.10;;;2.80;99.90;;;;;;5089365;28;20138;-69
2022/03/18 05:06:21;;;;;;;10.20;6.32;;;2.80;99.90;;;;;;5091260;28;20032;-69
2022/03/18 05:08:46;;;;;;;17.60;5.53;;;2.80;99.90;;;;;;5091367;28;20051;-69
2022/03/18 05:11:12;;;;;;;10.82;5.88;;;2.80;99.90;;;;;;5090077;28;20036;-68
2022/03/18 05:13:38;;;;;;;11.60;5.93;;;2.80;99.90;;;;;;5090644;28;20310;-69
2022/03/18 05:16:05;;;;;;;12.65;5.85;;;2.80;99.90;;;;;;5089864;28;20611;-69
2022/03/18 05:18:30;;;;;;;12.25;6.07;;;2.80;99.90;;;;;;5089714;28;20051;-68
2022/03/18 05:20:56;;;;;;;9.45;5.65;;;2.60;99.90;;;;;;5090714;28;20047;-69
2022/03/18 05:23:22;;;;;;;11.30;5.82;;;2.60;99.90;;;;;;5094109;28;20039;-68
2022/03/18 05:25:47;;;;;;;14.05;6.57;;;2.60;99.90;;;;;;5115436;28;20070;-68
2022/03/18 05:28:13;;;;;;;11.32;5.50;;;2.60;99.90;;;;;;5109965;28;20076;-69
2022/03/18 05:30:39;;;;;;;14.27;6.25;;;2.60;99.90;;;;;;5091347;28;20059;-69
2022/03/18 05:33:05;;;;;;;9.38;5.63;;;2.50;99.90;;;;;;5096394;28;20040;-69
2022/03/18 05:35:31;;;;;;;12.93;5.20;;;2.40;99.90;;;;;;5104754;28;20040;-70
2022/03/18 05:37:56;;;;;;;9.60;5.18;;;2.40;99.90;;;;;;5082898;28;20139;-69
2022/03/18 05:40:22;;;;;;;12.18;4.88;;;2.50;99.90;;;;;;5081810;28;20093;-69
2022/03/18 05:42:47;;;;;;;9.77;5.15;;;2.50;99.90;;;;;;5090066;28;20123;-69
2022/03/18 05:45:14;;;;;;;9.35;4.55;;;2.50;99.90;;;;;;5085547;28;20086;-69
2022/03/18 05:47:40;;;;;;;8.95;5.07;;;2.60;99.90;;;;;;5088689;28;20740;-69
2022/03/18 05:50:07;;;;;;;11.00;5.28;;;2.50;99.90;;;;;;5090412;28;20032;-69
2022/03/18 05:52:34;;;;;;;14.77;5.80;;;2.50;99.90;;;;;;5088489;28;20040;-68
2022/03/18 05:55:00;;;;;;;11.55;5.88;;;2.60;99.90;;;;;;5090346;28;20100;-68
2022/03/18 05:57:27;;;;;;;10.48;6.38;;;2.70;99.90;;;;;;5090454;28;20044;-69
2022/03/18 05:59:55;;;;;;;9.85;6.57;;;2.70;99.90;;;;;;5090197;28;20426;-69
2022/03/18 06:02:21;;;;;;;16.55;6.90;;;2.60;99.90;;;;;;5088080;28;20044;-68
2022/03/18 06:04:47;;;;;;;12.40;6.22;;;2.70;99.90;;;;;;5090216;28;20044;-68
2022/03/18 06:07:13;;;;;;;10.75;6.13;;;2.70;99.90;;;;;;5090071;28;20087;-69
2022/03/18 06:12:23;;;;;;;9.82;5.85;;;2.70;99.90;;;;;;5089602;28;20052;-69
2022/03/18 06:14:49;;;;;;;14.13;6.43;;;2.70;99.90;;;;;;5090295;28;20403;-69
2022/03/18 06:17:14;;;;;;;12.35;6.10;;;2.60;99.90;;;;;;5089120;28;20051;-69
2022/03/18 06:19:40;;;;;;;8.02;5.47;;;2.70;99.90;;;;;;5090154;28;20032;-69
2022/03/18 06:22:08;;;;;;;13.98;7.15;;;2.70;99.90;;;;;;5089725;28;20119;-68
2022/03/18 06:24:34;;;;;;;12.57;7.18;;;2.70;99.90;;;;;;5089990;28;20074;-70
2022/03/18 06:27:01;;;;;;;11.82;5.47;;;2.80;99.90;;;;;;5088654;28;20124;-69
2022/03/18 06:29:27;;;;;;;12.63;5.25;;;2.70;99.90;;;;;;5089080;28;20093;-70
2022/03/18 06:31:53;;;;;;;7.40;4.80;;;2.70;99.90;;;;;;5089012;28;20389;-70
2022/03/18 06:34:22;;;;;;;7.93;4.63;;;2.60;99.90;;;;;;5089804;28;20032;-70
2022/03/18 06:36:52;;;;;;;11.68;4.80;;;2.70;99.90;;;;;;5088547;28;20097;-70
2022/03/18 06:39:22;;;;;;;13.88;5.50;;;2.70;99.90;;;;;;5089942;28;20028;-70
2022/03/18 06:41:48;;;;;;;9.93;5.93;;;2.80;99.90;;;;;;5089587;28;20036;-70
2022/03/18 06:44:14;;;;;;;9.40;4.80;;;2.80;99.90;;;;;;5090997;28;20032;-71
2022/03/18 06:46:40;;;;;;;9.55;5.78;;;2.80;99.90;;;;;;5105004;28;20048;-69
2022/03/18 06:49:07;;;;;;;10.68;5.55;;;2.80;99.90;;;;;;5109713;28;20044;-69
2022/03/18 06:51:33;;;;;;;9.35;5.15;;;2.90;99.90;;;;;;5113658;28;20028;-69
2022/03/18 06:53:59;;;;;;;9.60;5.07;;;3.00;99.90;;;;;;5093394;28;20123;-71
2022/03/18 06:56:25;;;;;;;10.75;5.85;;;3.00;99.90;;;;;;5089609;28;20127;-70
2022/03/18 06:58:51;;;;;;;10.20;5.38;;;3.10;99.90;;;;;;5072927;28;20044;-70
2022/03/18 07:01:17;;;;;;;8.98;6.68;;;3.20;99.90;;;;;;5088931;28;20038;-71
2022/03/18 07:03:42;;;;;;;17.08;6.72;;;3.30;99.90;;;;;;5090466;28;20102;-69
2022/03/18 07:06:08;;;;;;;12.20;6.43;;;3.50;99.90;;;;;;5093921;28;20104;-69
2022/03/18 07:08:34;;;;;;;9.43;6.30;;;3.50;99.90;;;;;;5094207;28;20040;-68
2022/03/18 07:11:00;;;;;;;13.85;6.88;;;3.60;99.90;;;;;;5093521;28;20036;-69
2022/03/18 07:13:26;;;;;;;20.20;8.10;;;3.70;99.90;;;;;;5084126;28;20041;-69
2022/03/18 07:15:51;;;;;;;19.63;9.25;;;3.80;99.90;;;;;;5053412;28;20045;-69
2022/03/18 07:18:17;;;;;;;18.98;7.70;;;4.00;99.90;;;;;;5078207;28;20032;-69
2022/03/18 07:20:43;;;;;;;17.77;7.43;;;4.10;99.90;;;;;;5092222;28;20047;-70
2022/03/18 07:23:16;;;;;;;11.80;7.53;;;4.10;99.90;;;;;;5092380;28;20555;-70
2022/03/18 07:25:50;;;;;;;14.35;8.13;;;4.20;99.90;;;;;;5094251;28;20100;-69
2022/03/18 07:28:17;;;;;;;15.52;8.18;;;4.30;99.90;;;;;;5094260;28;20032;-69
2022/03/18 07:30:43;;;;;;;16.15;8.98;;;4.50;99.90;;;;;;5094449;28;20078;-70
2022/03/18 07:33:09;;;;;;;22.77;9.15;;;4.50;99.90;;;;;;5093359;28;20044;-70
2022/03/18 07:35:36;;;;;;;16.85;8.77;;;4.60;99.90;;;;;;5093028;28;20067;-70
2022/03/18 07:38:05;;;;;;;18.08;8.10;;;4.60;99.90;;;;;;5091556;28;20051;-69
2022/03/18 07:40:30;;;;;;;20.63;9.80;;;4.60;99.90;;;;;;5092896;28;20055;-69
2022/03/18 07:42:57;;;;;;;20.05;8.68;;;4.70;99.90;;;;;;5092149;28;20032;-71
2022/03/18 07:45:26;;;;;;;22.38;9.27;;;4.70;99.90;;;;;;5091355;28;20501;-71
2022/03/18 07:47:52;;;;;;;23.48;8.95;;;4.80;99.90;;;;;;5092511;28;20048;-70
2022/03/18 07:50:20;;;;;;;25.52;9.55;;;5.00;99.90;;;;;;5091130;28;20539;-69
2022/03/18 07:52:51;;;;;;;17.67;9.90;;;5.00;99.90;;;;;;5091969;28;20036;-69
2022/03/18 07:55:18;;;;;;;23.77;9.77;;;5.00;99.90;;;;;;5092819;28;20043;-70
2022/03/18 07:57:44;;;;;;;18.35;9.38;;;5.10;99.90;;;;;;5092635;28;20051;-70
2022/03/18 08:00:14;;;;;;;22.15;9.68;;;5.10;99.90;;;;;;5090948;28;20044;-70
2022/03/18 08:02:41;;;;;;;20.25;9.73;;;5.30;99.90;;;;;;5091636;28;20126;-70
2022/03/18 08:05:07;;;;;;;23.27;10.63;;;5.30;99.90;;;;;;5092087;28;20063;-70
2022/03/18 08:07:33;;;;;;;20.00;9.85;;;5.40;99.90;;;;;;5092669;28;20032;-70
2022/03/18 08:09:59;;;;;;;23.10;10.88;;;5.40;99.90;;;;;;5105089;28;20032;-77
2022/03/18 08:12:28;;;;;;;16.75;10.10;;;6.80;99.90;;;;;;5116485;28;20111;-78
2022/03/18 08:14:57;;;;;;;18.52;11.02;;;6.10;99.90;;;;;;5098931;28;20163;-77
2022/03/18 08:17:23;;;;;;;19.27;10.82;;;6.10;99.90;;;;;;5094040;28;20036;-77
2022/03/18 08:19:50;;;;;;;21.38;11.43;;;6.00;99.90;;;;;;5092299;28;20110;-77
2022/03/18 08:22:16;;;;;;;20.60;10.50;;;6.10;99.90;;;;;;5090465;28;20524;-78
2022/03/18 08:24:41;;;;;;;22.95;11.50;;;6.00;99.90;;;;;;5091143;28;20036;-78
2022/03/18 08:27:07;;;;;;;19.20;11.40;;;6.00;99.90;;;;;;5073909;28;20040;-78
2022/03/18 08:29:33;;;;;;;18.98;11.98;;;6.10;99.90;;;;;;5091222;28;20043;-77
2022/03/18 08:31:58;;;;;;;22.38;11.30;;;6.10;99.90;;;;;;5089791;28;20039;-78
2022/03/18 08:34:24;;;;;;;20.27;11.77;;;6.10;99.90;;;;;;5092185;28;20546;-78
2022/03/18 08:36:49;;;;;;;27.08;12.20;;;6.20;99.90;;;;;;5090613;28;20040;-79
2022/03/18 08:39:15;;;;;;;9.73;6.38;;;6.30;99.90;;;;;;5090786;28;20048;-72
2022/03/18 08:41:41;;;;;;;21.90;10.98;;;6.90;99.90;;;;;;5073754;28;20040;-72
2022/03/18 08:44:06;;;;;;;25.05;11.65;;;7.90;99.90;;;;;;5090895;28;20044;-72
2022/03/18 08:46:34;;;;;;;18.15;10.77;;;7.60;99.90;;;;;;5090723;28;20043;-72
2022/03/18 08:49:00;;;;;;;22.33;12.07;;;8.00;99.90;;;;;;5090859;28;20062;-72
2022/03/18 08:51:25;;;;;;;20.33;11.80;;;8.70;99.90;;;;;;5090828;28;20047;-72
2022/03/18 08:53:51;;;;;;;22.80;11.15;;;8.40;99.90;;;;;;5091600;28;20028;-73
2022/03/18 08:56:17;;;;;;;16.08;10.60;;;8.70;99.90;;;;;;5090845;28;20040;-72
2022/03/18 08:58:42;;;;;;;19.10;10.77;;;8.70;99.90;;;;;;5090995;28;20044;-72
2022/03/18 09:01:08;;;;;;;19.52;10.80;;;8.70;99.90;;;;;;5090632;28;20052;-73
2022/03/18 09:03:33;;;;;;;26.38;11.27;;;8.90;99.90;;;;;;5072611;28;20119;-73
2022/03/18 09:06:00;;;;;;;21.48;11.18;;;8.90;99.90;;;;;;5090318;28;20044;-76
2022/03/18 09:08:26;;;;;;;18.65;11.75;;;9.00;99.90;;;;;;5089936;28;20093;-78
2022/03/18 09:10:51;;;;;;;22.08;11.75;;;8.40;99.90;;;;;;5093523;28;20036;-74
2022/03/18 09:13:17;;;;;;;21.25;9.30;;;8.30;99.90;;;;;;5095967;28;20071;-76
2022/03/18 09:15:43;;;;;;;22.33;11.48;;;8.50;99.90;;;;;;5092775;28;20051;-79
2022/03/18 09:18:10;;;;;;;20.15;11.82;;;8.40;99.90;;;;;;5092586;28;20428;-74
2022/03/18 09:20:35;;;;;;;31.52;12.38;;;8.30;99.90;;;;;;5096598;28;20051;-80
2022/03/18 09:23:01;;;;;;;19.83;11.05;;;8.30;99.90;;;;;;5097339;28;20040;-80
2022/03/18 09:25:27;;;;;;;25.15;11.90;;;8.40;99.90;;;;;;5079070;28;20059;-79
2022/03/18 09:27:52;;;;;;;19.67;11.57;;;8.30;99.90;;;;;;5096840;28;20408;-79
2022/03/18 09:30:18;;;;;;;25.27;12.48;;;8.30;99.90;;;;;;5113622;28;20074;-75
2022/03/18 09:32:44;;;;;;;28.33;11.57;;;8.30;99.90;;;;;;5114955;28;20032;-73
2022/03/18 09:35:12;;;;;;;26.50;13.15;;;8.20;99.90;;;;;;5087577;28;20072;-71
2022/03/18 09:37:37;;;;;;;19.65;11.75;;;8.30;99.90;;;;;;5049369;28;20047;-72
2022/03/18 09:40:05;;;;;;;26.80;12.73;;;8.40;99.90;;;;;;5051332;28;20036;-76
2022/03/18 09:42:32;;;;;;;19.05;10.93;;;8.50;99.90;;;;;;5051088;28;20047;-74
2022/03/18 09:44:58;;;;;;;22.25;12.40;;;8.60;99.90;;;;;;5049580;28;20049;-75
2022/03/18 09:47:24;;;;;;;21.88;12.73;;;8.60;99.90;;;;;;5049601;28;20573;-76
2022/03/18 09:49:49;;;;;;;24.15;13.82;;;8.60;99.90;;;;;;5049549;28;20037;-76
2022/03/18 09:52:15;;;;;;;26.50;11.85;;;8.60;99.90;;;;;;5048167;28;20063;-76
2022/03/18 09:54:41;;;;;;;26.05;12.90;;;8.60;99.90;;;;;;5049214;28;20415;-77
2022/03/18 09:57:07;;;;;;;24.30;12.43;;;8.80;99.90;;;;;;5032349;28;20040;-77
2022/03/18 09:59:34;;;;;;;23.83;12.02;;;8.90;99.90;;;;;;5032272;28;20634;-77
2022/03/18 10:02:25;;;;;;;25.77;13.30;;;8.90;99.90;;;;;;5048644;28;20729;-77
2022/03/18 10:05:12;;;;;;;26.33;12.85;;;9.00;99.90;;;;;;5048964;28;20118;-77
2022/03/18 10:07:38;;;;;;;28.02;13.25;;;9.40;99.90;;;;;;5050281;28;20041;-77
2022/03/18 10:10:15;;;;;;;27.38;12.75;;;9.50;99.90;;;;;;5032358;28;20419;-75
2022/03/18 10:12:45;;;;;;;29.10;13.85;;;9.50;99.90;;;;;;5031522;28;20113;-75
2022/03/18 10:15:15;;;;;;;22.27;12.55;;;9.50;99.90;;;;;;5049884;28;20045;-75
2022/03/18 10:17:42;;;;;;;34.58;14.40;;;9.50;99.90;;;;;;5051856;28;20056;-75
2022/03/18 10:20:22;;;;;;;29.02;12.77;;;9.80;99.90;;;;;;5069716;28;20175;-75
2022/03/18 10:22:47;;;;;;;26.75;13.73;;;9.80;99.90;;;;;;5052970;28;20536;-74
2022/03/18 10:25:53;;;;;;;23.27;11.88;;;9.90;99.90;;;;;;5048532;28;20064;-73
2022/03/18 10:28:44;;;;;;;27.95;12.85;;;9.80;99.90;;;;;;5049170;28;20041;-73
2022/03/18 10:31:20;;;;;;;20.80;11.70;;;10.00;99.90;;;;;;5048674;28;20110;-75
2022/03/18 10:39:42;;;;;;;29.58;12.82;;;10.20;99.90;;;;;;5051783;28;20140;-74
2022/03/18 10:42:10;;;;;;;26.63;12.75;;;10.30;99.90;;;;;;5047619;28;20073;-75
2022/03/18 10:44:58;;;;;;;27.38;11.63;;;10.30;99.90;;;;;;5052451;28;20095;-76
2022/03/18 10:47:41;;;;;;;21.02;12.25;;;10.40;99.90;;;;;;5053026;28;20037;-77
2022/03/18 10:50:16;;;;;;;26.48;12.82;;;10.40;99.90;;;;;;5063694;28;20033;-74
2022/03/18 10:52:48;;;;;;;22.88;11.82;;;10.40;99.90;;;;;;5078999;28;20056;-76
2022/03/18 10:55:19;;;;;;;22.17;12.03;;;10.40;99.90;;;;;;5066288;28;20052;-76
2022/03/18 10:57:55;;;;;;;25.92;11.95;;;10.60;99.90;;;;;;5053778;28;20082;-76
2022/03/18 11:00:23;;;;;;;28.23;13.38;;;10.70;99.90;;;;;;5052536;28;20045;-76
2022/03/18 11:02:51;;;;;;;27.65;12.43;;;10.80;99.90;;;;;;5052976;28;20049;-75
2022/03/18 11:05:21;;;;;;;30.00;11.82;;;10.90;99.90;;;;;;5051953;28;20047;-71
2022/03/18 11:07:50;;;;;;;21.10;11.35;;;10.80;99.90;;;;;;5053687;28;20048;-77
2022/03/18 11:13:08;;;;;;;17.80;9.85;;;10.90;99.90;;;;;;5052616;28;20480;-70
2022/03/18 11:15:35;;;;;;;21.65;10.68;;;10.90;99.90;;;;;;5050223;28;20048;-71
2022/03/18 11:18:04;;;;;;;19.40;11.80;;;10.80;99.90;;;;;;5069954;28;20048;-71
2022/03/18 11:20:33;;;;;;;27.98;12.25;;;11.00;99.90;;;;;;5073003;28;20079;-71
2022/03/18 11:22:59;;;;;;;22.27;11.02;;;11.10;99.90;;;;;;5072411;28;20040;-71
2022/03/18 11:25:28;;;;;;;19.85;9.93;;;11.40;99.90;;;;;;5072738;28;20065;-71
2022/03/18 11:27:56;;;;;;;18.45;12.70;;;11.50;99.90;;;;;;5072241;28;20036;-71
2022/03/18 11:30:41;;;;;;;25.75;11.77;;;11.70;99.90;;;;;;5072909;28;20039;-71
2022/03/18 11:33:10;;;;;;;19.67;12.35;;;11.50;99.90;;;;;;5071994;28;20036;-72
2022/03/18 11:35:47;;;;;;;25.13;12.00;;;11.60;99.90;;;;;;5072683;28;20048;-72
2022/03/18 11:38:17;;;;;;;17.70;11.43;;;11.70;99.90;;;;;;5071132;28;20055;-75
2022/03/18 11:41:03;;;;;;;20.45;11.07;;;11.60;99.90;;;;;;5073216;28;20059;-75
2022/03/18 11:43:32;;;;;;;24.05;10.50;;;11.60;99.90;;;;;;5054325;28;20047;-75
2022/03/18 11:46:12;;;;;;;19.40;10.38;;;11.80;99.90;;;;;;5071314;28;20087;-76
2022/03/18 11:48:51;;;;;;;15.57;10.27;;;11.80;99.90;;;;;;5071362;28;20380;-76
2022/03/18 11:51:31;;;;;;;17.25;9.65;;;11.70;99.90;;;;;;5070828;28;20075;-75
2022/03/18 11:53:59;;;;;;;22.85;10.80;;;11.60;99.90;;;;;;5072109;28;20101;-75
2022/03/18 11:56:43;;;;;;;28.15;10.63;;;11.50;99.90;;;;;;5070879;28;20051;-75
2022/03/18 11:59:24;;;;;;;22.67;9.85;;;11.50;99.90;;;;;;5054555;28;20102;-75
2022/03/18 12:01:53;;;;;;;23.13;10.60;;;11.50;99.90;;;;;;5070714;28;20047;-74
2022/03/18 12:04:34;;;;;;;18.33;9.05;;;11.80;99.90;;;;;;5070583;28;20045;-74
2022/03/18 12:07:11;;;;;;;17.65;7.30;;;11.70;99.90;;;;;;5072760;28;20079;-75
2022/03/18 12:10:04;;;;;;;14.07;6.88;;;11.70;99.90;;;;;;5074066;28;20036;-75
2022/03/18 12:12:34;;;;;;;16.40;5.63;;;11.70;99.90;;;;;;5064765;28;20092;-75
2022/03/18 12:15:06;;;;;;;12.43;6.20;;;12.00;99.90;;;;;;5097822;28;20036;-75
2022/03/18 12:17:49;;;;;;;13.90;6.82;;;12.10;99.90;;;;;;5085814;28;20072;-76
2022/03/18 12:20:26;;;;;;;17.20;6.43;;;12.10;99.90;;;;;;5074351;28;20188;-77
2022/03/18 12:22:53;;;;;;;17.40;7.05;;;12.10;99.90;;;;;;5054498;28;20032;-76
2022/03/18 12:25:21;;;;;;;12.52;6.60;;;12.10;99.90;;;;;;5071230;28;20040;-77
2022/03/18 12:27:47;;;;;;;15.60;6.07;;;12.20;99.90;;;;;;5071122;28;20065;-77
2022/03/18 12:30:29;;;;;;;18.25;6.68;;;12.30;99.90;;;;;;5072082;28;20120;-77
2022/03/18 12:32:58;;;;;;;11.95;6.07;;;12.50;99.90;;;;;;5069662;28;20040;-77
2022/03/18 12:35:30;;;;;;;11.80;5.72;;;12.50;99.90;;;;;;5070318;28;20037;-77
2022/03/18 12:38:06;;;;;;;17.48;6.93;;;12.40;99.90;;;;;;5071915;28;20044;-70
2022/03/18 12:40:32;;;;;;;15.77;5.80;;;12.40;99.90;;;;;;5071823;28;20166;-74
2022/03/18 12:42:59;;;;;;;10.68;5.43;;;12.50;99.90;;;;;;5083496;28;20043;-73
2022/03/18 12:45:34;;;;;;;13.10;5.47;;;12.50;99.90;;;;;;5087454;28;20041;-74
2022/03/18 12:48:01;;;;;;;10.32;4.47;;;12.50;99.90;;;;;;5070620;28;20048;-74
2022/03/18 12:50:33;;;;;;;13.60;4.38;;;12.50;99.90;;;;;;5053724;28;20068;-73
2022/03/18 12:53:00;;;;;;;6.90;3.88;;;12.50;99.90;;;;;;5069673;28;20052;-74
2022/03/18 12:55:26;;;;;;;13.38;4.18;;;12.50;99.90;;;;;;5070360;28;20125;-74
2022/03/18 12:57:52;;;;;;;11.45;4.18;;;12.50;99.90;;;;;;5071588;28;20051;-74
2022/03/18 13:00:18;;;;;;;18.02;5.40;;;12.60;99.90;;;;;;5070370;28;20032;-74
2022/03/18 13:02:44;;;;;;;10.52;5.22;;;12.80;99.90;;;;;;5068575;28;20047;-73
2022/03/18 13:05:15;;;;;;;14.40;5.22;;;12.80;99.90;;;;;;5053413;28;20497;-74
2022/03/18 13:07:41;;;;;;;10.82;4.65;;;12.80;99.90;;;;;;5053577;28;20439;-74
2022/03/18 13:10:07;;;;;;;12.52;3.67;;;12.80;99.90;;;;;;5071454;28;20111;-73